sensor_id;sensor_type;location;lat;lon;timestamp;P1;durP1;ratioP1;P2;durP2;ratioP2
3677;SDS011;1855;50.934;6.958;2024-03-02T05:31:31;3.20;;;2.10;;
3677;SDS011;1855;50.934;6.958;2024-03-02T05:33:58;2.80;;;2.40;;
3677;SDS011;1855;50.934;6.958;2024-03-02T05:36:24;2.30;;;2.10;;
3677;SDS011;1855;50.934;6.958;2024-03-02T05:38:51;2.55;;;2.00;;
3677;SDS011;1855;50.934;6.958;2024-03-02T05:41:18;2.50;;;2.20;;
3677;SDS011;1855;50.934;6.958;2024-03-02T05:43:47;3.40;;;2.17;;
3677;SDS011;1855;50.934;6.958;2024-03-02T05:46:14;2.92;;;2.05;;
3677;SDS011;1855;50.934;6.958;2024-03-02T05:48:42;2.50;;;2.15;;
3677;SDS011;1855;50.934;6.958;2024-03-02T05:51:09;3.85;;;2.42;;
3677;SDS011;1855;50.934;6.958;2024-03-02T05:53:36;2.70;;;2.50;;
3677;SDS011;1855;50.934;6.958;2024-03-02T05:56:03;2.50;;;1.98;;
3677;SDS011;1855;50.934;6.958;2024-03-02T05:58:31;3.42;;;2.28;;
3677;SDS011;1855;50.934;6.958;2024-03-02T06:01:11;2.17;;;1.83;;
3677;SDS011;1855;50.934;6.958;2024-03-02T06:03:38;3.22;;;2.10;;
3677;SDS011;1855;50.934;6.958;2024-03-02T06:06:06;2.90;;;2.10;;
3677;SDS011;1855;50.934;6.958;2024-03-02T06:08:32;2.60;;;2.03;;
3677;SDS011;1855;50.934;6.958;2024-03-02T06:11:00;2.40;;;2.20;;
3677;SDS011;1855;50.934;6.958;2024-03-02T06:13:27;2.50;;;2.22;;
3677;SDS011;1855;50.934;6.958;2024-03-02T06:15:53;2.45;;;1.90;;
3677;SDS011;1855;50.934;6.958;2024-03-02T06:18:20;2.70;;;2.50;;
3677;SDS011;1855;50.934;6.958;2024-03-02T06:20:47;2.63;;;2.42;;
3677;SDS011;1855;50.934;6.958;2024-03-02T06:23:15;4.00;;;2.80;;
3677;SDS011;1855;50.934;6.958;2024-03-02T06:25:42;2.50;;;2.30;;
3677;SDS011;1855;50.934;6.958;2024-03-02T06:28:09;2.80;;;2.50;;
3677;SDS011;1855;50.934;6.958;2024-03-02T06:30:35;3.15;;;2.75;;
3677;SDS011;1855;50.934;6.958;2024-03-02T06:33:02;3.00;;;2.30;;
3677;SDS011;1855;50.934;6.958;2024-03-02T06:35:31;2.70;;;2.30;;
3677;SDS011;1855;50.934;6.958;2024-03-02T06:37:57;2.92;;;2.40;;
3677;SDS011;1855;50.934;6.958;2024-03-02T06:40:25;2.80;;;2.22;;
3677;SDS011;1855;50.934;6.958;2024-03-02T06:42:51;3.97;;;2.40;;
3677;SDS011;1855;50.934;6.958;2024-03-02T06:45:18;2.78;;;2.53;;
3677;SDS011;1855;50.934;6.958;2024-03-02T06:47:45;3.00;;;2.30;;
3677;SDS011;1855;50.934;6.958;2024-03-02T06:50:12;3.47;;;2.65;;
3677;SDS011;1855;50.934;6.958;2024-03-02T06:52:39;2.63;;;2.40;;
3677;SDS011;1855;50.934;6.958;2024-03-02T06:55:06;3.10;;;2.50;;
3677;SDS011;1855;50.934;6.958;2024-03-02T06:57:34;3.30;;;2.10;;
3677;SDS011;1855;50.934;6.958;2024-03-02T07:00:01;3.08;;;2.80;;
3677;SDS011;1855;50.934;6.958;2024-03-02T07:02:30;2.80;;;2.45;;
3677;SDS011;1855;50.934;6.958;2024-03-02T07:04:57;2.60;;;2.20;;
3677;SDS011;1855;50.934;6.958;2024-03-02T07:07:24;2.90;;;2.50;;
3677;SDS011;1855;50.934;6.958;2024-03-02T07:09:50;3.00;;;2.67;;
3677;SDS011;1855;50.934;6.958;2024-03-02T07:12:17;3.42;;;2.80;;
3677;SDS011;1855;50.934;6.958;2024-03-02T07:14:45;2.78;;;2.40;;
3677;SDS011;1855;50.934;6.958;2024-03-02T07:17:29;3.33;;;2.50;;
3677;SDS011;1855;50.934;6.958;2024-03-02T07:19:56;3.47;;;2.53;;
3677;SDS011;1855;50.934;6.958;2024-03-02T07:22:23;3.13;;;2.40;;
3677;SDS011;1855;50.934;6.958;2024-03-02T07:24:50;3.83;;;2.50;;
3677;SDS011;1855;50.934;6.958;2024-03-02T07:27:17;2.70;;;2.00;;
3677;SDS011;1855;50.934;6.958;2024-03-02T07:29:45;2.38;;;2.17;;
3677;SDS011;1855;50.934;6.958;2024-03-02T07:32:12;3.38;;;2.40;;
3677;SDS011;1855;50.934;6.958;2024-03-02T07:34:38;2.70;;;2.30;;
3677;SDS011;1855;50.934;6.958;2024-03-02T07:37:05;2.65;;;2.33;;
3677;SDS011;1855;50.934;6.958;2024-03-02T07:39:32;3.20;;;2.00;;
3677;SDS011;1855;50.934;6.958;2024-03-02T07:41:59;3.00;;;2.15;;
3677;SDS011;1855;50.934;6.958;2024-03-02T07:44:26;3.00;;;2.50;;
3677;SDS011;1855;50.934;6.958;2024-03-02T07:46:54;2.50;;;2.10;;
3677;SDS011;1855;50.934;6.958;2024-03-02T07:49:21;4.45;;;2.40;;
3677;SDS011;1855;50.934;6.958;2024-03-02T07:51:48;2.80;;;2.50;;
3677;SDS011;1855;50.934;6.958;2024-03-02T07:54:14;2.60;;;2.40;;
3677;SDS011;1855;50.934;6.958;2024-03-02T07:56:41;3.08;;;2.50;;
3677;SDS011;1855;50.934;6.958;2024-03-02T07:59:08;2.53;;;2.33;;
3677;SDS011;1855;50.934;6.958;2024-03-02T08:01:35;3.03;;;2.75;;
3677;SDS011;1855;50.934;6.958;2024-03-02T08:04:03;3.50;;;3.00;;
3677;SDS011;1855;50.934;6.958;2024-03-02T08:06:30;3.23;;;2.70;;
3677;SDS011;1855;50.934;6.958;2024-03-02T08:08:57;3.38;;;2.80;;
3677;SDS011;1855;50.934;6.958;2024-03-02T08:11:25;2.90;;;2.60;;
3677;SDS011;1855;50.934;6.958;2024-03-02T08:13:54;2.95;;;2.50;;
3677;SDS011;1855;50.934;6.958;2024-03-02T08:16:20;3.40;;;2.63;;
3677;SDS011;1855;50.934;6.958;2024-03-02T08:18:48;3.03;;;2.50;;
3677;SDS011;1855;50.934;6.958;2024-03-02T08:21:16;3.05;;;2.70;;
3677;SDS011;1855;50.934;6.958;2024-03-02T08:23:43;3.38;;;2.60;;
3677;SDS011;1855;50.934;6.958;2024-03-02T08:26:10;3.03;;;2.30;;
3677;SDS011;1855;50.934;6.958;2024-03-02T08:28:38;4.10;;;2.60;;
3677;SDS011;1855;50.934;6.958;2024-03-02T08:31:05;2.90;;;2.40;;
3677;SDS011;1855;50.934;6.958;2024-03-02T08:33:32;3.50;;;2.50;;
3677;SDS011;1855;50.934;6.958;2024-03-02T08:35:59;2.50;;;2.10;;
3677;SDS011;1855;50.934;6.958;2024-03-02T08:38:27;2.90;;;1.88;;
3677;SDS011;1855;50.934;6.958;2024-03-02T08:40:55;2.75;;;1.95;;
3677;SDS011;1855;50.934;6.958;2024-03-02T08:43:22;2.30;;;1.75;;
3677;SDS011;1855;50.934;6.958;2024-03-02T08:45:50;2.40;;;1.83;;
3677;SDS011;1855;50.934;6.958;2024-03-02T08:48:16;1.88;;;1.50;;
3677;SDS011;1855;50.934;6.958;2024-03-02T08:50:43;3.08;;;1.90;;
3677;SDS011;1855;50.934;6.958;2024-03-02T08:53:10;2.70;;;1.90;;
3677;SDS011;1855;50.934;6.958;2024-03-02T08:55:38;3.10;;;1.70;;
3677;SDS011;1855;50.934;6.958;2024-03-02T08:58:05;2.97;;;2.00;;
3677;SDS011;1855;50.934;6.958;2024-03-02T09:00:32;2.40;;;1.60;;
3677;SDS011;1855;50.934;6.958;2024-03-02T09:02:58;3.53;;;1.90;;
3677;SDS011;1855;50.934;6.958;2024-03-02T09:05:25;2.35;;;1.70;;
3677;SDS011;1855;50.934;6.958;2024-03-02T09:07:52;2.28;;;1.70;;
3677;SDS011;1855;50.934;6.958;2024-03-02T09:10:19;2.00;;;1.63;;
3677;SDS011;1855;50.934;6.958;2024-03-02T09:12:47;2.70;;;1.80;;
3677;SDS011;1855;50.934;6.958;2024-03-02T09:15:14;2.90;;;2.13;;
3677;SDS011;1855;50.934;6.958;2024-03-02T09:17:41;2.50;;;2.00;;
3677;SDS011;1855;50.934;6.958;2024-03-02T09:20:08;2.67;;;1.70;;
3677;SDS011;1855;50.934;6.958;2024-03-02T09:22:36;2.80;;;1.50;;
3677;SDS011;1855;50.934;6.958;2024-03-02T09:25:02;2.60;;;1.80;;
3677;SDS011;1855;50.934;6.958;2024-03-02T09:27:32;3.30;;;1.60;;
3677;SDS011;1855;50.934;6.958;2024-03-02T09:30:00;2.80;;;1.80;;
3677;SDS011;1855;50.934;6.958;2024-03-02T09:32:27;2.30;;;1.60;;
3677;SDS011;1855;50.934;6.958;2024-03-02T09:34:53;2.75;;;1.70;;
3677;SDS011;1855;50.934;6.958;2024-03-02T09:37:21;2.60;;;1.80;;
3677;SDS011;1855;50.934;6.958;2024-03-02T09:39:47;2.55;;;1.50;;
3677;SDS011;1855;50.934;6.958;2024-03-02T09:42:14;3.45;;;1.63;;
3677;SDS011;1855;50.934;6.958;2024-03-02T09:44:41;2.25;;;1.58;;
3677;SDS011;1855;50.934;6.958;2024-03-02T09:47:10;2.60;;;1.65;;
3677;SDS011;1855;50.934;6.958;2024-03-02T09:49:37;3.53;;;1.67;;
3677;SDS011;1855;50.934;6.958;2024-03-02T09:52:04;3.00;;;1.52;;
3677;SDS011;1855;50.934;6.958;2024-03-02T09:54:32;1.80;;;1.30;;
3677;SDS011;1855;50.934;6.958;2024-03-02T09:56:59;1.90;;;1.60;;
3677;SDS011;1855;50.934;6.958;2024-03-02T09:59:27;2.78;;;1.90;;
3677;SDS011;1855;50.934;6.958;2024-03-02T10:01:57;3.00;;;1.80;;
3677;SDS011;1855;50.934;6.958;2024-03-02T10:04:26;3.00;;;1.50;;
3677;SDS011;1855;50.934;6.958;2024-03-02T10:07:10;2.42;;;1.55;;
3677;SDS011;1855;50.934;6.958;2024-03-02T10:09:37;1.95;;;1.35;;
3677;SDS011;1855;50.934;6.958;2024-03-02T10:12:05;4.30;;;1.77;;
3677;SDS011;1855;50.934;6.958;2024-03-02T10:14:33;3.75;;;1.70;;
3677;SDS011;1855;50.934;6.958;2024-03-02T10:17:03;2.60;;;1.88;;
3677;SDS011;1855;50.934;6.958;2024-03-02T10:19:33;2.60;;;1.70;;
3677;SDS011;1855;50.934;6.958;2024-03-02T10:22:02;3.00;;;2.55;;
3677;SDS011;1855;50.934;6.958;2024-03-02T10:24:34;4.00;;;2.50;;
3677;SDS011;1855;50.934;6.958;2024-03-02T10:27:06;2.80;;;2.00;;
3677;SDS011;1855;50.934;6.958;2024-03-02T10:29:36;2.53;;;2.07;;
3677;SDS011;1855;50.934;6.958;2024-03-02T10:32:07;2.10;;;1.75;;
3677;SDS011;1855;50.934;6.958;2024-03-02T10:34:37;2.63;;;1.80;;
3677;SDS011;1855;50.934;6.958;2024-03-02T10:37:06;3.03;;;2.10;;
3677;SDS011;1855;50.934;6.958;2024-03-02T10:39:34;2.40;;;1.88;;
3677;SDS011;1855;50.934;6.958;2024-03-02T10:42:01;2.50;;;1.80;;
3677;SDS011;1855;50.934;6.958;2024-03-02T10:44:29;3.15;;;1.88;;
3677;SDS011;1855;50.934;6.958;2024-03-02T10:46:57;2.88;;;2.08;;
3677;SDS011;1855;50.934;6.958;2024-03-02T10:49:26;2.00;;;1.60;;
3677;SDS011;1855;50.934;6.958;2024-03-02T10:51:56;2.92;;;1.70;;
3677;SDS011;1855;50.934;6.958;2024-03-02T10:54:23;2.53;;;1.50;;
3677;SDS011;1855;50.934;6.958;2024-03-02T10:56:53;2.42;;;1.60;;
3677;SDS011;1855;50.934;6.958;2024-03-02T10:59:26;2.83;;;1.80;;
3677;SDS011;1855;50.934;6.958;2024-03-02T11:01:55;2.20;;;1.75;;
3677;SDS011;1855;50.934;6.958;2024-03-02T11:04:24;2.60;;;1.80;;
3677;SDS011;1855;50.934;6.958;2024-03-02T11:06:52;2.50;;;1.60;;
3677;SDS011;1855;50.934;6.958;2024-03-02T11:09:25;2.67;;;1.73;;
3677;SDS011;1855;50.934;6.958;2024-03-02T11:11:56;2.13;;;1.40;;
3677;SDS011;1855;50.934;6.958;2024-03-02T11:14:29;3.40;;;2.00;;
3677;SDS011;1855;50.934;6.958;2024-03-02T11:16:57;2.60;;;1.50;;
3677;SDS011;1855;50.934;6.958;2024-03-02T11:19:25;2.50;;;1.45;;
3677;SDS011;1855;50.934;6.958;2024-03-02T11:21:53;2.50;;;1.40;;
3677;SDS011;1855;50.934;6.958;2024-03-02T11:24:31;2.40;;;1.50;;
3677;SDS011;1855;50.934;6.958;2024-03-02T11:27:02;2.20;;;1.80;;
3677;SDS011;1855;50.934;6.958;2024-03-02T11:29:42;2.00;;;1.60;;
3677;SDS011;1855;50.934;6.958;2024-03-02T11:32:12;2.90;;;1.60;;
3677;SDS011;1855;50.934;6.958;2024-03-02T11:34:40;2.10;;;1.70;;
3677;SDS011;1855;50.934;6.958;2024-03-02T11:37:11;1.95;;;1.40;;
3677;SDS011;1855;50.934;6.958;2024-03-02T11:39:40;2.40;;;1.40;;
3677;SDS011;1855;50.934;6.958;2024-03-02T11:42:07;3.97;;;1.60;;
3677;SDS011;1855;50.934;6.958;2024-03-02T11:44:35;2.13;;;1.45;;
3677;SDS011;1855;50.934;6.958;2024-03-02T11:47:02;2.80;;;1.70;;
3677;SDS011;1855;50.934;6.958;2024-03-02T11:49:38;1.60;;;1.27;;
3677;SDS011;1855;50.934;6.958;2024-03-02T11:52:06;2.45;;;1.60;;
3677;SDS011;1855;50.934;6.958;2024-03-02T11:54:34;2.28;;;1.42;;
3677;SDS011;1855;50.934;6.958;2024-03-02T11:57:06;3.20;;;1.90;;
3677;SDS011;1855;50.934;6.958;2024-03-02T11:59:33;1.93;;;1.40;;
3677;SDS011;1855;50.934;6.958;2024-03-02T12:02:01;2.30;;;1.42;;
3677;SDS011;1855;50.934;6.958;2024-03-02T12:04:29;1.50;;;1.23;;
3677;SDS011;1855;50.934;6.958;2024-03-02T12:06:57;2.75;;;1.80;;
3677;SDS011;1855;50.934;6.958;2024-03-02T12:09:26;2.53;;;1.60;;
3677;SDS011;1855;50.934;6.958;2024-03-02T12:12:07;3.03;;;1.70;;
3677;SDS011;1855;50.934;6.958;2024-03-02T12:14:35;2.20;;;1.60;;
3677;SDS011;1855;50.934;6.958;2024-03-02T12:17:03;2.25;;;1.40;;
3677;SDS011;1855;50.934;6.958;2024-03-02T12:19:30;2.00;;;1.25;;
3677;SDS011;1855;50.934;6.958;2024-03-02T12:21:58;1.90;;;1.20;;
3677;SDS011;1855;50.934;6.958;2024-03-02T12:24:26;3.50;;;1.87;;
3677;SDS011;1855;50.934;6.958;2024-03-02T12:26:54;2.10;;;1.48;;
3677;SDS011;1855;50.934;6.958;2024-03-02T12:29:22;1.42;;;1.10;;
3677;SDS011;1855;50.934;6.958;2024-03-02T12:31:50;1.60;;;1.10;;
3677;SDS011;1855;50.934;6.958;2024-03-02T12:34:18;2.40;;;1.10;;
3677;SDS011;1855;50.934;6.958;2024-03-02T12:36:45;1.50;;;1.00;;
3677;SDS011;1855;50.934;6.958;2024-03-02T12:39:14;1.58;;;1.02;;
3677;SDS011;1855;50.934;6.958;2024-03-02T12:41:41;1.80;;;1.20;;
3677;SDS011;1855;50.934;6.958;2024-03-02T12:44:09;1.90;;;1.00;;
3677;SDS011;1855;50.934;6.958;2024-03-02T12:46:37;1.80;;;1.10;;
3677;SDS011;1855;50.934;6.958;2024-03-02T12:49:07;1.50;;;0.93;;
3677;SDS011;1855;50.934;6.958;2024-03-02T12:51:36;2.10;;;0.88;;
3677;SDS011;1855;50.934;6.958;2024-03-02T12:54:05;2.20;;;0.90;;
3677;SDS011;1855;50.934;6.958;2024-03-02T12:56:33;1.50;;;0.77;;
3677;SDS011;1855;50.934;6.958;2024-03-02T12:59:01;1.80;;;0.70;;
3677;SDS011;1855;50.934;6.958;2024-03-02T13:01:27;1.50;;;1.00;;
3677;SDS011;1855;50.934;6.958;2024-03-02T13:03:55;1.50;;;1.10;;
3677;SDS011;1855;50.934;6.958;2024-03-02T13:06:23;2.05;;;0.98;;
3677;SDS011;1855;50.934;6.958;2024-03-02T13:08:52;2.30;;;1.50;;
3677;SDS011;1855;50.934;6.958;2024-03-02T13:11:20;1.40;;;1.02;;
3677;SDS011;1855;50.934;6.958;2024-03-02T13:13:48;2.63;;;1.40;;
3677;SDS011;1855;50.934;6.958;2024-03-02T13:16:15;1.80;;;1.20;;
3677;SDS011;1855;50.934;6.958;2024-03-02T13:18:44;1.60;;;1.10;;
3677;SDS011;1855;50.934;6.958;2024-03-02T13:21:12;2.42;;;1.60;;
3677;SDS011;1855;50.934;6.958;2024-03-02T13:23:39;1.90;;;1.20;;
3677;SDS011;1855;50.934;6.958;2024-03-02T13:26:05;2.38;;;1.20;;
3677;SDS011;1855;50.934;6.958;2024-03-02T13:28:35;1.65;;;1.00;;
3677;SDS011;1855;50.934;6.958;2024-03-02T13:31:03;2.30;;;1.15;;
3677;SDS011;1855;50.934;6.958;2024-03-02T13:33:30;2.80;;;1.88;;
3677;SDS011;1855;50.934;6.958;2024-03-02T13:35:58;1.50;;;0.90;;
3677;SDS011;1855;50.934;6.958;2024-03-02T13:38:26;1.73;;;0.80;;
3677;SDS011;1855;50.934;6.958;2024-03-02T13:40:52;1.40;;;1.10;;
3677;SDS011;1855;50.934;6.958;2024-03-02T13:43:19;1.90;;;1.00;;
3677;SDS011;1855;50.934;6.958;2024-03-02T13:45:46;1.58;;;0.80;;
3677;SDS011;1855;50.934;6.958;2024-03-02T13:48:13;1.30;;;0.70;;
3677;SDS011;1855;50.934;6.958;2024-03-02T13:50:40;1.80;;;0.70;;
3677;SDS011;1855;50.934;6.958;2024-03-02T13:53:07;2.03;;;1.00;;
3677;SDS011;1855;50.934;6.958;2024-03-02T13:55:35;1.53;;;0.83;;
3677;SDS011;1855;50.934;6.958;2024-03-02T13:58:03;1.17;;;0.70;;
3677;SDS011;1855;50.934;6.958;2024-03-02T14:00:30;1.23;;;0.80;;
3677;SDS011;1855;50.934;6.958;2024-03-02T14:02:57;1.20;;;0.70;;
3677;SDS011;1855;50.934;6.958;2024-03-02T14:05:24;1.30;;;0.70;;
3677;SDS011;1855;50.934;6.958;2024-03-02T14:07:50;1.88;;;0.88;;
3677;SDS011;1855;50.934;6.958;2024-03-02T14:10:17;1.60;;;0.80;;
3677;SDS011;1855;50.934;6.958;2024-03-02T14:12:48;1.38;;;0.70;;
3677;SDS011;1855;50.934;6.958;2024-03-02T14:15:15;2.03;;;1.00;;
3677;SDS011;1855;50.934;6.958;2024-03-02T14:17:42;1.30;;;0.70;;
3677;SDS011;1855;50.934;6.958;2024-03-02T14:20:09;1.40;;;0.70;;
3677;SDS011;1855;50.934;6.958;2024-03-02T14:22:37;1.20;;;0.77;;
3677;SDS011;1855;50.934;6.958;2024-03-02T14:25:04;1.27;;;0.80;;
3677;SDS011;1855;50.934;6.958;2024-03-02T14:27:31;1.30;;;0.80;;
3677;SDS011;1855;50.934;6.958;2024-03-02T14:30:00;3.17;;;0.93;;
3677;SDS011;1855;50.934;6.958;2024-03-02T14:32:26;2.30;;;1.30;;
3677;SDS011;1855;50.934;6.958;2024-03-02T14:34:53;1.70;;;1.08;;
3677;SDS011;1855;50.934;6.958;2024-03-02T14:37:20;1.50;;;0.90;;
3677;SDS011;1855;50.934;6.958;2024-03-02T14:39:47;1.70;;;1.20;;
3677;SDS011;1855;50.934;6.958;2024-03-02T14:42:15;1.52;;;1.10;;
3677;SDS011;1855;50.934;6.958;2024-03-02T14:44:42;1.40;;;1.00;;
3677;SDS011;1855;50.934;6.958;2024-03-02T14:47:10;1.88;;;1.20;;
3677;SDS011;1855;50.934;6.958;2024-03-02T14:49:37;1.55;;;1.02;;
3677;SDS011;1855;50.934;6.958;2024-03-02T14:52:05;1.80;;;0.98;;
3677;SDS011;1855;50.934;6.958;2024-03-02T14:54:32;1.90;;;1.30;;
3677;SDS011;1855;50.934;6.958;2024-03-02T14:57:00;2.20;;;1.20;;
3677;SDS011;1855;50.934;6.958;2024-03-02T14:59:27;2.10;;;1.10;;
3677;SDS011;1855;50.934;6.958;2024-03-02T15:01:54;1.88;;;1.00;;
3677;SDS011;1855;50.934;6.958;2024-03-02T15:04:23;2.30;;;1.20;;
3677;SDS011;1855;50.934;6.958;2024-03-02T15:06:49;1.92;;;1.30;;
3677;SDS011;1855;50.934;6.958;2024-03-02T15:09:16;1.73;;;0.90;;
3677;SDS011;1855;50.934;6.958;2024-03-02T15:11:44;1.95;;;1.00;;
3677;SDS011;1855;50.934;6.958;2024-03-02T15:14:12;2.00;;;0.93;;
3677;SDS011;1855;50.934;6.958;2024-03-02T15:16:39;1.30;;;0.90;;
3677;SDS011;1855;50.934;6.958;2024-03-02T15:19:07;1.70;;;1.20;;
3677;SDS011;1855;50.934;6.958;2024-03-02T15:21:35;2.20;;;0.90;;
3677;SDS011;1855;50.934;6.958;2024-03-02T15:24:02;2.00;;;0.90;;
3677;SDS011;1855;50.934;6.958;2024-03-02T15:26:29;2.40;;;1.10;;
3677;SDS011;1855;50.934;6.958;2024-03-02T15:28:55;2.30;;;1.10;;
3677;SDS011;1855;50.934;6.958;2024-03-02T15:31:24;1.67;;;1.00;;
3677;SDS011;1855;50.934;6.958;2024-03-02T15:33:50;1.40;;;1.00;;
3677;SDS011;1855;50.934;6.958;2024-03-02T15:36:18;1.30;;;0.80;;
3677;SDS011;1855;50.934;6.958;2024-03-02T15:38:46;1.80;;;0.90;;
3677;SDS011;1855;50.934;6.958;2024-03-02T15:41:13;1.42;;;0.90;;
3677;SDS011;1855;50.934;6.958;2024-03-02T15:43:40;1.35;;;0.75;;
3677;SDS011;1855;50.934;6.958;2024-03-02T15:46:07;1.60;;;0.90;;
3677;SDS011;1855;50.934;6.958;2024-03-02T15:48:34;2.60;;;0.88;;
3677;SDS011;1855;50.934;6.958;2024-03-02T15:51:01;1.42;;;1.00;;
3677;SDS011;1855;50.934;6.958;2024-03-02T15:53:29;2.38;;;1.10;;
3677;SDS011;1855;50.934;6.958;2024-03-02T15:55:57;2.60;;;1.10;;
3677;SDS011;1855;50.934;6.958;2024-03-02T15:58:24;2.17;;;1.00;;
3677;SDS011;1855;50.934;6.958;2024-03-02T16:00:51;2.13;;;0.90;;
3677;SDS011;1855;50.934;6.958;2024-03-02T16:03:17;1.70;;;0.80;;
3677;SDS011;1855;50.934;6.958;2024-03-02T16:05:44;1.00;;;0.50;;
3677;SDS011;1855;50.934;6.958;2024-03-02T16:08:11;1.30;;;0.80;;
3677;SDS011;1855;50.934;6.958;2024-03-02T16:10:38;1.30;;;0.80;;
3677;SDS011;1855;50.934;6.958;2024-03-02T16:13:06;1.58;;;0.77;;
3677;SDS011;1855;50.934;6.958;2024-03-02T16:15:32;2.25;;;0.90;;
3677;SDS011;1855;50.934;6.958;2024-03-02T16:17:59;1.40;;;0.80;;
3677;SDS011;1855;50.934;6.958;2024-03-02T16:20:27;1.30;;;0.80;;
3677;SDS011;1855;50.934;6.958;2024-03-02T16:22:53;1.50;;;0.80;;
3677;SDS011;1855;50.934;6.958;2024-03-02T16:25:20;1.50;;;1.00;;
3677;SDS011;1855;50.934;6.958;2024-03-02T16:27:49;1.30;;;0.90;;
3677;SDS011;1855;50.934;6.958;2024-03-02T16:30:18;1.40;;;0.93;;
3677;SDS011;1855;50.934;6.958;2024-03-02T16:32:45;1.33;;;0.80;;
3677;SDS011;1855;50.934;6.958;2024-03-02T16:35:12;1.40;;;0.80;;
3677;SDS011;1855;50.934;6.958;2024-03-02T16:37:40;2.63;;;1.63;;
3677;SDS011;1855;50.934;6.958;2024-03-02T16:40:07;2.22;;;0.93;;
3677;SDS011;1855;50.934;6.958;2024-03-02T16:42:34;1.60;;;0.90;;
3677;SDS011;1855;50.934;6.958;2024-03-02T16:45:01;1.70;;;1.00;;
3677;SDS011;1855;50.934;6.958;2024-03-02T16:47:29;1.52;;;1.00;;
3677;SDS011;1855;50.934;6.958;2024-03-02T16:49:56;1.30;;;0.90;;
3677;SDS011;1855;50.934;6.958;2024-03-02T16:52:23;1.40;;;0.80;;
3677;SDS011;1855;50.934;6.958;2024-03-02T16:54:50;1.60;;;1.00;;
3677;SDS011;1855;50.934;6.958;2024-03-02T16:57:17;1.30;;;0.82;;
3677;SDS011;1855;50.934;6.958;2024-03-02T16:59:44;1.40;;;0.80;;
3677;SDS011;1855;50.934;6.958;2024-03-02T17:02:10;2.13;;;0.90;;
3677;SDS011;1855;50.934;6.958;2024-03-02T17:04:39;1.63;;;1.00;;
3677;SDS011;1855;50.934;6.958;2024-03-02T17:07:05;2.55;;;1.20;;
3677;SDS011;1855;50.934;6.958;2024-03-02T17:09:32;1.60;;;1.10;;
3677;SDS011;1855;50.934;6.958;2024-03-02T17:11:59;2.40;;;1.00;;
3677;SDS011;1855;50.934;6.958;2024-03-02T17:14:26;1.70;;;1.13;;
3677;SDS011;1855;50.934;6.958;2024-03-02T17:16:53;2.17;;;1.00;;
3677;SDS011;1855;50.934;6.958;2024-03-02T17:19:20;1.80;;;1.00;;
3677;SDS011;1855;50.934;6.958;2024-03-02T17:21:48;2.50;;;1.30;;
3677;SDS011;1855;50.934;6.958;2024-03-02T17:24:14;11.75;;;7.93;;
3677;SDS011;1855;50.934;6.958;2024-03-02T17:26:41;1.98;;;1.10;;
3677;SDS011;1855;50.934;6.958;2024-03-02T17:29:08;1.98;;;1.20;;
3677;SDS011;1855;50.934;6.958;2024-03-02T17:31:34;1.73;;;1.30;;
3677;SDS011;1855;50.934;6.958;2024-03-02T17:34:01;1.90;;;1.30;;
3677;SDS011;1855;50.934;6.958;2024-03-02T17:36:28;1.52;;;1.08;;
3677;SDS011;1855;50.934;6.958;2024-03-02T17:38:56;1.90;;;1.38;;
3677;SDS011;1855;50.934;6.958;2024-03-02T17:41:23;2.03;;;1.20;;
3677;SDS011;1855;50.934;6.958;2024-03-02T17:43:49;1.50;;;1.20;;
3677;SDS011;1855;50.934;6.958;2024-03-02T17:46:16;1.83;;;1.20;;
3677;SDS011;1855;50.934;6.958;2024-03-02T17:48:43;1.90;;;1.00;;
3677;SDS011;1855;50.934;6.958;2024-03-02T17:51:09;1.80;;;1.27;;
3677;SDS011;1855;50.934;6.958;2024-03-02T17:53:36;2.60;;;1.30;;
3677;SDS011;1855;50.934;6.958;2024-03-02T17:56:05;2.08;;;1.30;;
3677;SDS011;1855;50.934;6.958;2024-03-02T17:58:35;1.70;;;1.30;;
3677;SDS011;1855;50.934;6.958;2024-03-02T18:01:01;2.10;;;1.40;;
3677;SDS011;1855;50.934;6.958;2024-03-02T18:03:29;2.30;;;1.40;;
3677;SDS011;1855;50.934;6.958;2024-03-02T18:05:56;2.15;;;1.50;;
3677;SDS011;1855;50.934;6.958;2024-03-02T18:08:22;1.80;;;1.40;;
3677;SDS011;1855;50.934;6.958;2024-03-02T18:10:49;2.00;;;1.30;;
3677;SDS011;1855;50.934;6.958;2024-03-02T18:13:17;3.10;;;1.60;;
3677;SDS011;1855;50.934;6.958;2024-03-02T18:15:44;3.10;;;2.30;;
3677;SDS011;1855;50.934;6.958;2024-03-02T18:18:10;2.13;;;1.50;;
3677;SDS011;1855;50.934;6.958;2024-03-02T18:20:37;1.98;;;1.40;;
3677;SDS011;1855;50.934;6.958;2024-03-02T18:23:04;1.90;;;1.50;;
3677;SDS011;1855;50.934;6.958;2024-03-02T18:25:31;1.77;;;1.50;;
3677;SDS011;1855;50.934;6.958;2024-03-02T18:27:58;1.50;;;1.30;;
3677;SDS011;1855;50.934;6.958;2024-03-02T18:30:26;2.60;;;1.60;;
3677;SDS011;1855;50.934;6.958;2024-03-02T18:32:53;1.95;;;1.60;;
3677;SDS011;1855;50.934;6.958;2024-03-02T18:35:20;3.10;;;1.80;;
3677;SDS011;1855;50.934;6.958;2024-03-02T18:37:46;2.30;;;1.50;;
3677;SDS011;1855;50.934;6.958;2024-03-02T18:40:13;2.75;;;1.98;;
3677;SDS011;1855;50.934;6.958;2024-03-02T18:42:40;2.08;;;1.88;;
3677;SDS011;1855;50.934;6.958;2024-03-02T18:45:07;2.50;;;2.03;;
3677;SDS011;1855;50.934;6.958;2024-03-02T18:47:35;2.10;;;1.90;;
3677;SDS011;1855;50.934;6.958;2024-03-02T18:50:04;2.50;;;2.30;;
3677;SDS011;1855;50.934;6.958;2024-03-02T18:52:33;2.87;;;2.20;;
3677;SDS011;1855;50.934;6.958;2024-03-02T18:55:01;3.20;;;2.30;;
3677;SDS011;1855;50.934;6.958;2024-03-02T18:57:28;2.92;;;2.20;;
3677;SDS011;1855;50.934;6.958;2024-03-02T18:59:55;3.70;;;2.80;;
3677;SDS011;1855;50.934;6.958;2024-03-02T19:02:22;3.25;;;2.10;;
3677;SDS011;1855;50.934;6.958;2024-03-02T19:04:50;2.60;;;2.40;;
3677;SDS011;1855;50.934;6.958;2024-03-02T19:07:17;3.65;;;2.83;;
3677;SDS011;1855;50.934;6.958;2024-03-02T19:09:44;2.42;;;2.20;;
3677;SDS011;1855;50.934;6.958;2024-03-02T19:12:10;3.97;;;2.80;;
3677;SDS011;1855;50.934;6.958;2024-03-02T19:14:37;2.75;;;2.55;;
3677;SDS011;1855;50.934;6.958;2024-03-02T19:17:04;3.10;;;2.70;;
3677;SDS011;1855;50.934;6.958;2024-03-02T19:19:31;3.00;;;2.70;;
3677;SDS011;1855;50.934;6.958;2024-03-02T19:21:59;2.80;;;2.50;;
3677;SDS011;1855;50.934;6.958;2024-03-02T19:24:25;3.25;;;2.50;;
3677;SDS011;1855;50.934;6.958;2024-03-02T19:26:53;2.50;;;2.30;;
3677;SDS011;1855;50.934;6.958;2024-03-02T19:29:19;3.13;;;2.50;;
3677;SDS011;1855;50.934;6.958;2024-03-02T19:31:48;3.20;;;2.70;;
3677;SDS011;1855;50.934;6.958;2024-03-02T19:34:15;2.40;;;2.20;;
3677;SDS011;1855;50.934;6.958;2024-03-02T19:36:42;2.80;;;2.22;;
3677;SDS011;1855;50.934;6.958;2024-03-02T19:39:10;2.65;;;2.45;;
3677;SDS011;1855;50.934;6.958;2024-03-02T19:41:37;2.22;;;2.03;;
3677;SDS011;1855;50.934;6.958;2024-03-02T19:44:04;3.05;;;2.75;;
3677;SDS011;1855;50.934;6.958;2024-03-02T19:46:31;3.30;;;2.70;;
3677;SDS011;1855;50.934;6.958;2024-03-02T19:48:58;3.70;;;2.50;;
3677;SDS011;1855;50.934;6.958;2024-03-02T19:51:25;3.73;;;2.97;;
3677;SDS011;1855;50.934;6.958;2024-03-02T19:53:51;3.10;;;2.70;;
3677;SDS011;1855;50.934;6.958;2024-03-02T19:56:19;2.90;;;2.60;;
3677;SDS011;1855;50.934;6.958;2024-03-02T19:58:46;2.88;;;2.40;;
3677;SDS011;1855;50.934;6.958;2024-03-02T20:01:16;2.75;;;2.45;;
3677;SDS011;1855;50.934;6.958;2024-03-02T20:03:44;2.80;;;2.15;;
3677;SDS011;1855;50.934;6.958;2024-03-02T20:06:10;3.00;;;2.30;;
3677;SDS011;1855;50.934;6.958;2024-03-02T20:08:37;3.72;;;2.60;;
3677;SDS011;1855;50.934;6.958;2024-03-02T20:11:04;3.10;;;2.40;;
3677;SDS011;1855;50.934;6.958;2024-03-02T20:13:32;3.33;;;2.45;;
3677;SDS011;1855;50.934;6.958;2024-03-02T20:15:59;2.75;;;2.50;;
3677;SDS011;1855;50.934;6.958;2024-03-02T20:18:26;2.63;;;2.35;;
3677;SDS011;1855;50.934;6.958;2024-03-02T20:20:53;3.88;;;2.40;;
3677;SDS011;1855;50.934;6.958;2024-03-02T20:23:20;3.58;;;2.35;;
3677;SDS011;1855;50.934;6.958;2024-03-02T20:25:46;2.20;;;1.90;;
3677;SDS011;1855;50.934;6.958;2024-03-02T20:28:13;2.85;;;2.25;;
3677;SDS011;1855;50.934;6.958;2024-03-02T20:30:43;2.78;;;2.15;;
3677;SDS011;1855;50.934;6.958;2024-03-02T20:33:09;2.60;;;2.40;;
3677;SDS011;1855;50.934;6.958;2024-03-02T20:35:36;3.67;;;2.95;;
3677;SDS011;1855;50.934;6.958;2024-03-02T20:38:04;3.03;;;2.70;;
3677;SDS011;1855;50.934;6.958;2024-03-02T20:40:31;2.80;;;2.38;;
3677;SDS011;1855;50.934;6.958;2024-03-02T20:42:59;3.00;;;2.53;;
3677;SDS011;1855;50.934;6.958;2024-03-02T20:45:26;2.75;;;2.45;;
3677;SDS011;1855;50.934;6.958;2024-03-02T20:47:54;3.40;;;2.60;;